createdAt,value
2023-02-24T00:01:24.740Z,100.10
2023-02-24T00:03:52.952Z,99.35
2023-02-24T00:06:20.240Z,96.20
2023-02-24T00:08:48.158Z,97.50
2023-02-24T00:11:18.875Z,97.65
2023-02-24T00:13:47.295Z,103.25
2023-02-24T00:16:16.529Z,103.25
2023-02-24T00:18:44.159Z,116.30
2023-02-24T00:21:14.821Z,125.07
2023-02-24T00:23:42.881Z,103.97
2023-02-24T00:26:11.405Z,94.25
2023-02-24T00:28:40.308Z,91.10
2023-02-24T00:31:09.853Z,83.65
2023-02-24T00:33:39.261Z,86.05
2023-02-24T00:36:10.117Z,80.07
2023-02-24T00:38:37.476Z,95.72
2023-02-24T00:41:14.233Z,103.40
2023-02-24T00:43:46.800Z,99.75
2023-02-24T00:46:17.100Z,97.60
2023-02-24T00:48:45.964Z,84.03
2023-02-24T00:51:13.853Z,78.78
2023-02-24T00:53:41.448Z,85.95
2023-02-24T00:56:11.962Z,73.80
2023-02-24T00:58:39.551Z,75.78
2023-02-24T01:01:13.711Z,88.38
2023-02-24T01:03:41.823Z,82.57
2023-02-24T01:06:09.199Z,75.28
2023-02-24T01:08:42.629Z,83.43
2023-02-24T01:11:27.993Z,76.97
2023-02-24T01:13:55.345Z,65.07
2023-02-24T01:16:24.042Z,56.97
2023-02-24T01:18:51.853Z,42.35
2023-02-24T01:21:20.273Z,38.65
2023-02-24T01:23:48.353Z,41.70
2023-02-24T01:26:16.071Z,44.90
2023-02-24T01:28:43.423Z,40.83
2023-02-24T01:31:10.923Z,44.88
2023-02-24T01:33:39.846Z,41.60
2023-02-24T01:36:10.875Z,45.53
2023-02-24T01:38:39.055Z,52.25
2023-02-24T01:41:07.767Z,46.55
2023-02-24T01:43:55.383Z,45.47
2023-02-24T01:46:23.904Z,50.50
2023-02-24T01:48:53.104Z,54.65
2023-02-24T01:51:21.169Z,57.20
2023-02-24T01:53:49.245Z,63.42
2023-02-24T01:56:16.976Z,61.95
2023-02-24T01:58:44.410Z,57.72
2023-02-24T02:01:14.217Z,64.85
2023-02-24T02:03:42.322Z,56.03
2023-02-24T02:06:12.346Z,53.42
2023-02-24T02:08:41.342Z,57.72
2023-02-24T02:11:10.017Z,58.95
2023-02-24T02:13:38.200Z,62.33
2023-02-24T02:16:13.650Z,64.70
2023-02-24T02:18:46.596Z,63.20
2023-02-24T02:21:25.709Z,59.67
2023-02-24T02:24:00.274Z,47.80
2023-02-24T02:26:41.266Z,38.63
2023-02-24T02:29:26.067Z,56.40
2023-02-24T02:32:03.667Z,48.13
2023-02-24T02:34:37.448Z,48.10
2023-02-24T02:37:07.625Z,49.33
2023-02-24T02:39:38.537Z,49.78
2023-02-24T02:42:14.839Z,58.22
2023-02-24T02:44:47.990Z,64.35
2023-02-24T02:47:22.976Z,59.42
2023-02-24T02:49:53.273Z,57.35
2023-02-24T02:52:24.083Z,57.13
2023-02-24T02:54:53.830Z,46.20
2023-02-24T02:57:24.828Z,42.65
2023-02-24T02:59:54.438Z,49.40
2023-02-24T03:02:28.341Z,39.65
2023-02-24T03:04:59.189Z,53.40
2023-02-24T03:07:30.965Z,42.38
2023-02-24T03:10:00.186Z,37.30
2023-02-24T03:12:30.558Z,35.70
2023-02-24T03:14:59.323Z,41.33
2023-02-24T03:17:27.817Z,40.25
2023-02-24T03:20:01.183Z,45.78
2023-02-24T03:22:34.506Z,28.17
2023-02-24T03:25:02.343Z,40.72
2023-02-24T03:27:31.643Z,32.10
2023-02-24T03:30:01.204Z,29.40
2023-02-24T03:32:33.092Z,37.78
2023-02-24T03:35:06.380Z,41.15
2023-02-24T03:37:33.673Z,29.63
2023-02-24T03:40:07.681Z,31.25
2023-02-24T03:42:35.603Z,26.75
2023-02-24T03:45:03.466Z,41.38
2023-02-24T03:47:32.796Z,38.78
2023-02-24T03:50:00.164Z,38.10
2023-02-24T03:52:33.765Z,31.55
2023-02-24T03:55:13.717Z,29.35
2023-02-24T03:57:55.985Z,27.92
2023-02-24T04:00:26.600Z,32.72
2023-02-24T04:02:58.304Z,27.63
2023-02-24T04:05:29.105Z,35.40
2023-02-24T04:08:00.375Z,26.17
2023-02-24T04:10:31.698Z,32.38
2023-02-24T04:13:01.954Z,35.90
2023-02-24T04:15:32.131Z,36.40
2023-02-24T04:18:01.980Z,31.63
2023-02-24T04:20:31.952Z,24.90
2023-02-24T04:23:03.757Z,32.65
2023-02-24T04:25:32.345Z,26.42
2023-02-24T04:28:00.451Z,32.08
2023-02-24T04:30:30.141Z,33.15
2023-02-24T04:32:57.505Z,34.05
2023-02-24T04:35:26.575Z,27.73
2023-02-24T04:37:54.689Z,31.08
2023-02-24T04:40:23.594Z,27.08
2023-02-24T04:42:51.739Z,21.92
2023-02-24T04:45:20.240Z,28.50
2023-02-24T04:47:51.079Z,36.85
2023-02-24T04:50:23.783Z,30.08
2023-02-24T04:52:52.478Z,31.00
2023-02-24T04:55:20.943Z,24.10
2023-02-24T04:57:49.898Z,21.90
2023-02-24T05:00:22.404Z,27.10
2023-02-24T05:02:53.567Z,30.20
2023-02-24T05:05:25.309Z,30.75
2023-02-24T05:07:52.689Z,26.92
2023-02-24T05:10:20.465Z,23.33
2023-02-24T05:12:47.781Z,22.90
2023-02-24T05:15:16.450Z,20.27
2023-02-24T05:17:43.796Z,27.95
2023-02-24T05:20:29.357Z,23.25
2023-02-24T05:22:57.446Z,20.38
2023-02-24T05:25:25.832Z,18.48
2023-02-24T05:27:53.194Z,21.98
2023-02-24T05:30:21.853Z,27.70
2023-02-24T05:32:49.236Z,37.58
2023-02-24T05:35:16.584Z,16.92
2023-02-24T05:37:44.869Z,28.00
2023-02-24T05:40:14.682Z,29.92
2023-02-24T05:42:45.135Z,22.83
2023-02-24T05:45:12.597Z,29.13
2023-02-24T05:47:45.360Z,20.42
2023-02-24T05:50:13.351Z,22.40
2023-02-24T05:52:40.655Z,20.73
2023-02-24T05:55:13.863Z,23.58
2023-02-24T05:57:41.343Z,24.02
2023-02-24T06:00:15.893Z,18.98
2023-02-24T06:02:49.538Z,22.45
2023-02-24T06:05:25.579Z,22.65
2023-02-24T06:08:04.618Z,19.63
2023-02-24T06:10:33.856Z,17.95
2023-02-24T06:13:01.822Z,25.30
2023-02-24T06:15:29.412Z,31.67
2023-02-24T06:18:00.768Z,22.90
2023-02-24T06:20:28.681Z,23.48
2023-02-24T06:22:57.936Z,20.77
2023-02-24T06:25:25.785Z,24.58
2023-02-24T06:27:56.319Z,23.33
2023-02-24T06:30:24.568Z,22.52
2023-02-24T06:32:52.323Z,27.60
2023-02-24T06:35:21.406Z,18.58
2023-02-24T06:37:48.766Z,28.00
2023-02-24T06:40:17.076Z,25.15
2023-02-24T06:42:48.112Z,24.83
2023-02-24T06:45:15.916Z,22.15
2023-02-24T06:47:43.779Z,21.58
2023-02-24T06:50:12.325Z,30.10
2023-02-24T06:52:43.150Z,22.48
2023-02-24T06:55:25.227Z,20.75
2023-02-24T06:57:59.086Z,25.40
2023-02-24T07:00:36.941Z,29.33
2023-02-24T07:03:14.630Z,27.35
2023-02-24T07:05:50.110Z,17.70
2023-02-24T07:08:20.920Z,27.95
2023-02-24T07:10:52.561Z,32.20
2023-02-24T07:13:19.960Z,19.58
2023-02-24T07:15:49.362Z,23.90
2023-02-24T07:18:17.278Z,22.08
2023-02-24T07:20:46.116Z,24.50
2023-02-24T07:23:14.101Z,32.88
2023-02-24T07:25:43.310Z,30.63
2023-02-24T07:28:11.084Z,26.58
2023-02-24T07:30:39.270Z,30.00
2023-02-24T07:33:06.825Z,18.48
2023-02-24T07:35:35.460Z,20.77
2023-02-24T07:38:04.919Z,21.67
2023-02-24T07:40:33.370Z,29.00
2023-02-24T07:43:03.170Z,27.70
2023-02-24T07:45:30.529Z,22.33
2023-02-24T07:47:59.467Z,21.67
2023-02-24T07:50:32.505Z,31.02
2023-02-24T07:53:00.105Z,20.63
2023-02-24T07:55:31.105Z,17.40
2023-02-24T07:57:58.407Z,18.80
2023-02-24T08:00:30.021Z,23.05
2023-02-24T08:02:57.807Z,27.02
2023-02-24T08:05:25.694Z,23.30
2023-02-24T08:07:55.531Z,21.67
2023-02-24T08:10:25.495Z,24.88
2023-02-24T08:12:55.471Z,30.17
2023-02-24T08:15:26.623Z,23.83
2023-02-24T08:17:59.317Z,22.27
2023-02-24T08:20:27.904Z,30.20
2023-02-24T08:22:55.621Z,21.35
2023-02-24T08:25:24.135Z,26.90
2023-02-24T08:28:12.263Z,22.25
2023-02-24T08:30:44.903Z,32.35
2023-02-24T08:33:17.343Z,29.92
2023-02-24T08:35:45.416Z,30.00
2023-02-24T08:38:14.858Z,27.48
2023-02-24T08:40:54.734Z,26.30
2023-02-24T08:43:32.706Z,20.05
2023-02-24T08:46:03.476Z,30.73
2023-02-24T08:48:37.040Z,28.70
2023-02-24T08:51:06.061Z,29.63
2023-02-24T08:53:33.369Z,28.55
2023-02-24T08:56:09.276Z,23.33
2023-02-24T08:58:40.822Z,24.30
2023-02-24T09:01:18.327Z,21.90
2023-02-24T09:03:48.585Z,22.50
2023-02-24T09:06:17.606Z,26.58
2023-02-24T09:08:46.510Z,25.02
2023-02-24T09:11:14.915Z,17.73
2023-02-24T09:13:51.580Z,19.40
2023-02-24T09:16:19.421Z,19.00
2023-02-24T09:19:08.321Z,24.50
2023-02-24T09:21:53.339Z,23.27
2023-02-24T09:24:27.070Z,17.42
2023-02-24T09:26:58.389Z,14.52
2023-02-24T09:29:34.698Z,16.42
2023-02-24T09:32:13.422Z,18.50
2023-02-24T09:34:43.920Z,20.05
2023-02-24T09:37:24.762Z,13.00
2023-02-24T09:40:15.189Z,14.95
2023-02-24T09:42:58.164Z,24.67
2023-02-24T09:45:33.260Z,18.95
2023-02-24T09:48:10.302Z,14.77
2023-02-24T09:51:02.080Z,16.27
2023-02-24T09:53:41.305Z,16.75
2023-02-24T09:56:15.973Z,14.95
2023-02-24T09:58:47.641Z,14.30
2023-02-24T10:01:33.104Z,13.63
2023-02-24T10:04:14.802Z,13.25
2023-02-24T10:06:49.194Z,17.92
2023-02-24T10:09:21.641Z,20.90
2023-02-24T10:11:54.385Z,23.42
2023-02-24T10:14:29.416Z,15.77
2023-02-24T10:17:22.354Z,22.17
2023-02-24T10:19:56.384Z,16.15
2023-02-24T10:22:29.231Z,13.80
2023-02-24T10:25:10.844Z,13.65
2023-02-24T10:27:45.479Z,14.23
2023-02-24T10:30:19.689Z,15.52
2023-02-24T10:32:50.508Z,12.20
2023-02-24T10:35:19.416Z,16.55
2023-02-24T10:37:49.091Z,17.58
2023-02-24T10:40:26.254Z,20.70
2023-02-24T10:43:04.127Z,17.17
2023-02-24T10:45:34.698Z,13.27
2023-02-24T10:48:08.559Z,14.45
2023-02-24T10:50:54.901Z,16.60
2023-02-24T10:53:34.698Z,15.40
2023-02-24T10:56:26.641Z,14.35
2023-02-24T10:59:20.437Z,12.52
2023-02-24T11:01:59.005Z,9.88
2023-02-24T11:04:53.833Z,14.27
2023-02-24T11:07:25.395Z,15.07
2023-02-24T11:10:11.251Z,10.77
2023-02-24T11:13:04.275Z,17.92
2023-02-24T11:15:55.039Z,24.02
2023-02-24T11:18:24.021Z,16.65
2023-02-24T11:20:53.583Z,22.30
2023-02-24T11:23:23.376Z,12.10
2023-02-24T11:25:53.276Z,12.68
2023-02-24T11:28:31.332Z,15.73
2023-02-24T11:31:06.125Z,13.63
2023-02-24T11:33:36.154Z,14.95
2023-02-24T11:36:05.987Z,13.48
2023-02-24T11:38:39.484Z,21.05
2023-02-24T11:41:12.534Z,18.48
2023-02-24T11:43:42.194Z,13.40
2023-02-24T11:46:13.212Z,16.42
2023-02-24T11:48:41.774Z,13.30
2023-02-24T11:51:13.017Z,18.42
2023-02-24T11:53:44.774Z,12.68
2023-02-24T11:56:16.520Z,12.93
2023-02-24T11:58:46.422Z,13.45
2023-02-24T12:01:17.277Z,15.85
2023-02-24T12:03:50.371Z,15.25
2023-02-24T12:06:19.413Z,15.75
2023-02-24T12:08:50.408Z,13.07
2023-02-24T12:11:22.627Z,13.07
2023-02-24T12:13:53.338Z,17.30
2023-02-24T12:16:23.768Z,14.25
2023-02-24T12:18:53.233Z,13.77
2023-02-24T12:21:23.761Z,13.63
2023-02-24T12:23:53.480Z,22.20
2023-02-24T12:26:24.094Z,19.40
2023-02-24T12:29:16.532Z,13.60
2023-02-24T12:31:53.245Z,20.55
2023-02-24T12:34:25.155Z,19.40
2023-02-24T12:37:00.623Z,13.27
2023-02-24T12:39:31.808Z,20.98
2023-02-24T12:42:07.348Z,14.48
2023-02-24T12:44:38.564Z,12.95
2023-02-24T12:47:07.772Z,19.80
2023-02-24T12:49:45.640Z,14.65
2023-02-24T12:52:15.683Z,14.45
2023-02-24T12:54:46.202Z,10.82
2023-02-24T12:57:20.047Z,14.05
2023-02-24T12:59:47.626Z,14.43
2023-02-24T13:02:17.911Z,19.38
2023-02-24T13:04:51.089Z,20.48
2023-02-24T13:07:28.241Z,22.17
2023-02-24T13:10:03.564Z,22.55
2023-02-24T13:12:36.143Z,19.00
2023-02-24T13:15:04.845Z,17.20
2023-02-24T13:17:32.209Z,15.48
2023-02-24T13:20:10.333Z,17.17
2023-02-24T13:22:41.991Z,16.98
2023-02-24T13:25:19.650Z,13.52
2023-02-24T13:27:55.624Z,12.75
2023-02-24T13:30:29.438Z,22.25
2023-02-24T13:33:01.688Z,15.50
2023-02-24T13:35:34.207Z,19.55
2023-02-24T13:38:09.374Z,19.75
2023-02-24T13:40:37.039Z,19.45
2023-02-24T13:43:05.699Z,15.73
2023-02-24T13:45:33.684Z,27.20
2023-02-24T13:48:10.711Z,22.17
2023-02-24T13:50:41.683Z,19.17
2023-02-24T13:53:24.539Z,15.00
2023-02-24T13:55:58.533Z,16.95
2023-02-24T13:58:36.398Z,25.13
2023-02-24T14:01:07.591Z,19.13
2023-02-24T14:03:35.354Z,17.00
2023-02-24T14:06:03.361Z,12.30
2023-02-24T14:08:34.676Z,19.05
2023-02-24T14:11:03.463Z,20.20
2023-02-24T14:13:34.130Z,20.13
2023-02-24T14:16:02.302Z,18.77
2023-02-24T14:18:30.393Z,19.38
2023-02-24T14:20:58.393Z,12.35
2023-02-24T14:23:26.319Z,10.45
2023-02-24T14:25:55.137Z,24.05
2023-02-24T14:28:24.223Z,15.63
2023-02-24T14:30:58.038Z,20.77
2023-02-24T14:33:28.528Z,18.47
2023-02-24T14:35:55.963Z,23.33
2023-02-24T14:38:34.533Z,14.65
2023-02-24T14:41:02.383Z,22.73
2023-02-24T14:43:30.704Z,11.73
2023-02-24T14:45:59.531Z,12.25
2023-02-24T14:48:27.733Z,17.05
2023-02-24T14:50:56.589Z,18.85
2023-02-24T14:53:24.608Z,18.92
2023-02-24T14:55:55.785Z,17.70
2023-02-24T14:58:25.305Z,20.73
2023-02-24T15:00:54.666Z,21.65
2023-02-24T15:03:24.573Z,20.48
2023-02-24T15:05:53.576Z,21.95
2023-02-24T15:08:32.417Z,22.45
2023-02-24T15:10:59.897Z,19.08
2023-02-24T15:13:30.543Z,22.65
2023-02-24T15:15:57.999Z,20.55
2023-02-24T15:18:27.918Z,17.55
2023-02-24T15:21:01.941Z,22.77
2023-02-24T15:23:31.427Z,16.05
2023-02-24T15:25:59.229Z,16.55
2023-02-24T15:28:30.528Z,18.25
2023-02-24T15:31:01.003Z,16.67
2023-02-24T15:33:33.655Z,19.52
2023-02-24T15:36:01.449Z,16.33
2023-02-24T15:38:31.153Z,20.58
2023-02-24T15:41:02.469Z,22.45
2023-02-24T15:43:33.528Z,18.70
2023-02-24T15:46:00.891Z,14.27
2023-02-24T15:48:31.273Z,11.75
2023-02-24T15:51:03.612Z,13.65
2023-02-24T15:53:30.930Z,23.42
2023-02-24T15:55:58.288Z,17.08
2023-02-24T15:58:25.660Z,16.05
2023-02-24T16:00:53.151Z,14.25
2023-02-24T16:03:20.629Z,21.27
2023-02-24T16:05:48.075Z,17.80
2023-02-24T16:08:18.325Z,12.88
2023-02-24T16:10:45.642Z,17.92
2023-02-24T16:13:17.601Z,15.38
2023-02-24T16:15:45.423Z,17.17
2023-02-24T16:18:20.965Z,15.40
2023-02-24T16:20:54.446Z,26.08
2023-02-24T16:23:24.103Z,16.73
2023-02-24T16:25:52.573Z,22.13
2023-02-24T16:28:21.074Z,14.48
2023-02-24T16:30:48.948Z,12.23
2023-02-24T16:33:17.220Z,21.73
2023-02-24T16:35:44.899Z,16.70
2023-02-24T16:38:14.890Z,14.90
2023-02-24T16:40:45.426Z,14.27
2023-02-24T16:43:13.201Z,16.17
2023-02-24T16:45:41.245Z,20.42
2023-02-24T16:48:10.221Z,18.50
2023-02-24T16:50:39.695Z,19.20
2023-02-24T16:53:07.795Z,19.52
2023-02-24T16:55:35.180Z,18.40
2023-02-24T16:58:03.864Z,14.98
2023-02-24T17:00:31.282Z,25.70
2023-02-24T17:02:58.744Z,16.33
2023-02-24T17:05:27.572Z,20.40
2023-02-24T17:07:56.120Z,20.95
2023-02-24T17:10:24.364Z,22.65
2023-02-24T17:12:51.687Z,23.08
2023-02-24T17:15:21.851Z,23.73
2023-02-24T17:17:49.223Z,35.55
2023-02-24T17:20:18.238Z,25.55
2023-02-24T17:22:46.516Z,38.40
2023-02-24T17:25:16.098Z,30.95
2023-02-24T17:27:49.733Z,32.17
2023-02-24T17:30:18.822Z,23.40
2023-02-24T17:32:47.551Z,23.23
2023-02-24T17:35:14.931Z,21.17
2023-02-24T17:37:42.511Z,45.97
2023-02-24T17:40:10.913Z,29.92
2023-02-24T17:42:38.230Z,31.65
2023-02-24T17:45:06.118Z,19.17
2023-02-24T17:47:34.276Z,31.88
2023-02-24T17:50:03.182Z,97.88
2023-02-24T17:52:31.774Z,21.83
2023-02-24T17:54:59.303Z,36.47
2023-02-24T17:57:29.274Z,30.13
2023-02-24T17:59:56.590Z,20.05
2023-02-24T18:02:25.072Z,21.65
2023-02-24T18:04:52.562Z,23.35
2023-02-24T18:07:21.996Z,27.50
2023-02-24T18:09:49.372Z,24.92
2023-02-24T18:12:18.474Z,19.80
2023-02-24T18:14:46.524Z,24.52
2023-02-24T18:17:15.183Z,54.10
2023-02-24T18:19:42.509Z,28.70
2023-02-24T18:22:09.844Z,35.67
2023-02-24T18:24:40.167Z,36.65
2023-02-24T18:27:07.629Z,30.02
2023-02-24T18:29:35.058Z,33.88
2023-02-24T18:32:03.174Z,41.90
2023-02-24T18:34:30.647Z,33.22
2023-02-24T18:36:58.002Z,29.52
2023-02-24T18:39:25.391Z,37.70
2023-02-24T18:41:54.082Z,37.67
2023-02-24T18:44:21.453Z,38.78
2023-02-24T18:46:48.885Z,44.55
2023-02-24T18:49:16.271Z,156.23
2023-02-24T18:51:45.800Z,41.90
2023-02-24T18:54:13.177Z,52.70
2023-02-24T18:56:40.649Z,82.15
2023-02-24T18:59:09.366Z,64.22
2023-02-24T19:01:38.455Z,66.80
2023-02-24T19:04:06.983Z,158.18
2023-02-24T19:06:34.985Z,55.60
2023-02-24T19:09:03.302Z,88.95
2023-02-24T19:11:30.817Z,116.80
2023-02-24T19:13:58.600Z,90.10
2023-02-24T19:16:27.569Z,45.92
2023-02-24T19:18:56.380Z,42.13
2023-02-24T19:21:24.239Z,126.18
2023-02-24T19:23:52.851Z,148.48
2023-02-24T19:26:21.787Z,71.15
2023-02-24T19:28:49.705Z,111.53
2023-02-24T19:31:18.112Z,33.00
2023-02-24T19:33:46.866Z,32.38
2023-02-24T19:36:14.248Z,44.33
2023-02-24T19:38:42.204Z,67.40
2023-02-24T19:41:09.549Z,57.97
2023-02-24T19:43:36.842Z,52.17
2023-02-24T19:46:06.084Z,31.00
2023-02-24T19:48:33.690Z,47.00
2023-02-24T19:51:06.700Z,110.03
2023-02-24T19:53:34.120Z,34.47
2023-02-24T19:56:01.538Z,33.08
2023-02-24T19:58:28.877Z,50.60
2023-02-24T20:00:56.251Z,84.47
2023-02-24T20:03:23.592Z,21.77
2023-02-24T20:05:50.934Z,72.20
2023-02-24T20:08:19.599Z,50.55
2023-02-24T20:10:46.878Z,23.73
2023-02-24T20:13:16.789Z,75.68
2023-02-24T20:15:44.080Z,65.80
2023-02-24T20:18:11.408Z,69.55
2023-02-24T20:20:38.714Z,42.75
2023-02-24T20:23:06.078Z,44.65
2023-02-24T20:25:34.843Z,65.88
2023-02-24T20:28:02.329Z,61.60
2023-02-24T20:30:29.624Z,43.00
2023-02-24T20:32:59.481Z,38.03
2023-02-24T20:35:28.255Z,77.50
2023-02-24T20:37:55.602Z,100.72
2023-02-24T20:40:22.992Z,34.42
2023-02-24T20:42:51.712Z,75.90
2023-02-24T20:45:19.120Z,19.83
2023-02-24T20:47:46.420Z,23.42
2023-02-24T20:50:14.653Z,18.88
2023-02-24T20:52:42.141Z,20.55
2023-02-24T20:55:09.732Z,25.58
2023-02-24T20:57:37.082Z,42.13
2023-02-24T21:00:07.967Z,29.35
2023-02-24T21:02:35.411Z,34.10
2023-02-24T21:05:02.874Z,34.25
2023-02-24T21:07:31.562Z,139.13
2023-02-24T21:09:58.993Z,107.00
2023-02-24T21:12:26.464Z,70.18
2023-02-24T21:14:53.903Z,136.98
2023-02-24T21:17:22.660Z,59.58
2023-02-24T21:19:50.677Z,117.57
2023-02-24T21:22:18.577Z,110.38
2023-02-24T21:24:46.031Z,137.77
2023-02-24T21:27:13.348Z,220.55
2023-02-24T21:29:40.755Z,30.58
2023-02-24T21:32:08.273Z,44.80
2023-02-24T21:34:37.877Z,46.78
2023-02-24T21:37:05.872Z,20.25
2023-02-24T21:39:33.367Z,59.35
2023-02-24T21:42:00.702Z,39.35
2023-02-24T21:44:28.287Z,34.08
2023-02-24T21:46:55.870Z,64.10
2023-02-24T21:49:23.434Z,30.08
2023-02-24T21:51:52.193Z,85.28
2023-02-24T21:54:19.484Z,86.47
2023-02-24T21:56:46.820Z,33.47
2023-02-24T21:59:14.160Z,34.33
2023-02-24T22:01:43.182Z,27.77
2023-02-24T22:04:12.436Z,33.95
2023-02-24T22:06:40.817Z,28.38
2023-02-24T22:09:10.527Z,25.17
2023-02-24T22:11:39.689Z,27.02
2023-02-24T22:14:07.532Z,28.13
2023-02-24T22:16:34.997Z,24.60
2023-02-24T22:19:02.465Z,74.38
2023-02-24T22:21:30.270Z,33.45
2023-02-24T22:23:59.110Z,16.20
2023-02-24T22:26:28.207Z,33.05
2023-02-24T22:28:55.946Z,87.50
2023-02-24T22:31:24.160Z,49.78
2023-02-24T22:33:51.898Z,156.48
2023-02-24T22:36:20.510Z,44.13
2023-02-24T22:38:48.193Z,67.82
2023-02-24T22:41:16.692Z,63.50
2023-02-24T22:43:45.448Z,46.63
2023-02-24T22:46:13.934Z,53.83
2023-02-24T22:48:41.365Z,26.65
2023-02-24T22:51:09.861Z,24.98
2023-02-24T22:53:38.169Z,19.50
2023-02-24T22:56:05.839Z,28.67
2023-02-24T22:58:33.348Z,29.55
2023-02-24T23:01:02.067Z,24.42
2023-02-24T23:03:31.407Z,17.50
2023-02-24T23:05:59.393Z,26.25
2023-02-24T23:08:27.346Z,27.45
2023-02-24T23:10:54.967Z,21.05
2023-02-24T23:13:22.369Z,20.40
2023-02-24T23:15:50.259Z,28.05
2023-02-24T23:18:18.982Z,24.67
2023-02-24T23:20:47.067Z,24.15
2023-02-24T23:23:14.634Z,26.38
2023-02-24T23:25:42.034Z,21.48
2023-02-24T23:28:09.466Z,22.40
2023-02-24T23:30:41.172Z,23.27
2023-02-24T23:33:08.487Z,20.70
2023-02-24T23:35:37.152Z,14.80
2023-02-24T23:38:04.502Z,24.98
2023-02-24T23:40:44.367Z,18.17
2023-02-24T23:43:16.542Z,22.15
2023-02-24T23:45:44.872Z,28.73
2023-02-24T23:48:13.463Z,20.98
2023-02-24T23:50:43.098Z,15.55
2023-02-24T23:53:10.808Z,22.52
2023-02-24T23:55:39.944Z,20.90
2023-02-24T23:58:08.273Z,23.90
